Terminal Aerodrome Forecast
Issued by NWS Cleveland, OH

Home | Current Version | Previous Version | Text Only | Print | Product List | Glossary Off
Versions: 1 2 3 4 5 6 7 8 9 10 11 12 13 14 15 16 17 18 19 20

000
FTUS41 KCLE 270100 AAA
TAFERI
TAF AMD
KERI 270122Z 2701/2724 26005KT P6SM SCT008 OVC025
     FM270800 29007KT P6SM VCSH SCT010 OVC018
     FM271600 30008KT 6SM -SHSN SCT015 OVC022
     FM271900 31010KT 4SM -SHSN BKN015=

USA.gov is the U.S. government's official web portal to all federal, state and local government web resources and services.